Terminal Aerodrome Forecast
Issued by NWS Charleston, WV

Current Version | Previous Version | Text Only | Print | Product List | Glossary Off
Versions: 1 2 3 4 5 6 7 8 9 10 11 12 13 14 15 16 17 18 19 20 21 22 23 24 25 26 27

000
FTUS41 KRLX 252300 RRA
TAFEKN
TAF
KEKN 252344Z 2600/2624 VRB03KT P6SM FEW060 SCT200
     FM260700 00000KT 6SM BR BKN060
     FM260900 00000KT 3SM -SN BR OVC040
     FM261100 00000KT 3/4SM -SN BR SCT001 OVC030
     FM261400 VRB03KT 1/2SM -SN FG BKN008
     FM261700 29005KT 1SM -SN BR SCT001 OVC008
     FM262100 31005KT 2SM BR OVC010
     FM262300 29004KT 3SM BR OVC015=

USA.gov is the U.S. government's official web portal to all federal, state and local government web resources and services.